Time;durP1;ratioP1;P1;durP2;ratioP2;P2;SDS_P1;SDS_P2;PMS_P1;PMS_P2;Temp;Humidity;BMP_temperature;BMP_pressure;BME280_temperature;BME280_humidity;BME280_pressure;Samples;Min_cycle;Max_cycle;Signal;HPM_P1;HPM_P2
2022/10/17 00:01:04;;;;;;;11.43;4.25;;;11.60;99.90;;;;;;5052653;28;20406;-79
2022/10/17 00:03:30;;;;;;;11.70;4.38;;;11.60;99.90;;;;;;5053061;28;20037;-78
2022/10/17 00:05:56;;;;;;;8.38;3.97;;;11.60;99.90;;;;;;5053125;28;20047;-78
2022/10/17 00:08:21;;;;;;;12.13;4.07;;;11.60;99.90;;;;;;5052866;28;20041;-79
2022/10/17 00:11:06;;;;;;;12.80;4.28;;;11.50;99.90;;;;;;5052433;28;20037;-79
2022/10/17 00:13:31;;;;;;;;;;;11.50;99.90;;;;;;5053453;28;20075;-79
2022/10/17 00:15:57;;;;;;;11.15;4.40;;;11.50;99.90;;;;;;5052874;28;19960;-79
2022/10/17 00:18:23;;;;;;;11.77;3.90;;;11.50;99.90;;;;;;5053029;28;20041;-78
2022/10/17 00:20:49;;;;;;;8.43;4.30;;;11.50;99.90;;;;;;5052480;28;20040;-78
2022/10/17 00:23:15;;;;;;;10.63;4.05;;;11.50;99.90;;;;;;5052774;28;20072;-79
2022/10/17 00:25:40;;;;;;;8.68;3.88;;;11.50;99.90;;;;;;5052814;28;20065;-79
2022/10/17 00:28:10;;;;;;;11.20;4.30;;;11.50;99.90;;;;;;5052295;28;20037;-78
2022/10/17 00:30:36;;;;;;;11.07;4.13;;;11.50;99.90;;;;;;5052418;28;20040;-78
2022/10/17 00:33:01;;;;;;;8.25;4.00;;;11.50;99.90;;;;;;5052277;28;20033;-79
2022/10/17 00:35:27;;;;;;;10.90;3.85;;;11.50;99.90;;;;;;5052292;28;20421;-79
2022/10/17 00:37:52;;;;;;;10.07;3.72;;;11.50;99.90;;;;;;5052221;28;20037;-78
2022/10/17 00:40:18;;;;;;;11.57;3.90;;;11.50;99.90;;;;;;5052099;28;20040;-77
2022/10/17 00:42:44;;;;;;;12.02;3.67;;;11.50;99.90;;;;;;5052444;28;20442;-78
2022/10/17 00:45:30;;;;;;;9.63;3.90;;;11.50;99.90;;;;;;5052336;28;20064;-79
2022/10/17 00:48:07;;;;;;;9.18;3.53;;;11.50;99.90;;;;;;5052250;28;20041;-79
2022/10/17 00:50:35;;;;;;;9.30;3.63;;;11.60;99.90;;;;;;5052208;28;20044;-78
2022/10/17 00:53:03;;;;;;;8.45;3.50;;;11.60;99.90;;;;;;5051720;28;20037;-78
2022/10/17 00:55:35;;;;;;;12.68;4.18;;;11.70;99.90;;;;;;5051732;28;20094;-78
2022/10/17 00:58:03;;;;;;;8.65;3.80;;;11.70;99.90;;;;;;5046856;28;20040;-78
2022/10/17 01:00:29;;;;;;;8.77;3.47;;;11.80;99.90;;;;;;5035192;28;20037;-78
2022/10/17 01:02:54;;;;;;;8.70;3.40;;;11.80;99.90;;;;;;5051523;28;20051;-78
2022/10/17 01:05:20;;;;;;;9.88;4.00;;;11.80;99.90;;;;;;5051576;28;20045;-78
2022/10/17 01:07:49;;;;;;;7.32;3.53;;;11.80;99.90;;;;;;5051579;28;20041;-78
2022/10/17 01:10:16;;;;;;;10.77;3.70;;;11.80;99.90;;;;;;5051536;28;20051;-78
2022/10/17 01:12:58;;;;;;;9.32;3.45;;;11.90;99.90;;;;;;5051201;28;20094;-78
2022/10/17 01:15:42;;;;;;;9.50;3.70;;;11.90;99.90;;;;;;5046075;28;20049;-79
2022/10/17 01:18:11;;;;;;;;;;;11.90;99.90;;;;;;5045936;28;20457;-78
2022/10/17 01:20:42;;;;;;;9.57;3.17;;;12.00;99.90;;;;;;5034959;28;20376;-80
2022/10/17 01:23:38;;;;;;;6.82;3.55;;;12.00;99.90;;;;;;5050940;28;20041;-77
2022/10/17 01:26:32;;;;;;;7.45;3.28;;;12.10;99.90;;;;;;5051253;28;20090;-78
2022/10/17 01:29:29;;;;;;;7.57;3.28;;;12.10;99.90;;;;;;5051461;28;20401;-78
2022/10/17 01:32:03;;;;;;;10.52;3.85;;;12.20;99.90;;;;;;5050835;28;20041;-79
2022/10/17 01:34:32;;;;;;;8.38;3.65;;;12.20;99.90;;;;;;5050816;28;20529;-77
2022/10/17 01:37:20;;;;;;;8.18;3.60;;;12.20;99.90;;;;;;5050823;28;20060;-78
2022/10/17 01:39:55;;;;;;;10.68;3.83;;;12.30;99.90;;;;;;5051021;28;20064;-78
2022/10/17 01:42:52;;;;;;;9.35;3.92;;;12.30;99.90;;;;;;5050593;28;20052;-79
2022/10/17 01:45:26;;;;;;;12.43;3.90;;;12.30;99.90;;;;;;5050388;28;20500;-78
2022/10/17 01:47:53;;;;;;;10.15;3.75;;;12.30;99.90;;;;;;5050911;28;20033;-78
2022/10/17 01:50:36;;;;;;;7.55;3.92;;;12.30;99.90;;;;;;5050733;28;20044;-77
2022/10/17 01:53:12;;;;;;;7.70;3.67;;;12.30;99.90;;;;;;5050460;28;20044;-78
2022/10/17 01:55:41;;;;;;;9.48;4.10;;;12.40;99.90;;;;;;5050633;28;20410;-78
2022/10/17 01:58:29;;;;;;;8.25;4.18;;;12.40;99.90;;;;;;5050554;28;20033;-78
2022/10/17 02:00:57;;;;;;;8.23;4.25;;;12.40;99.90;;;;;;5057898;28;20049;-78
2022/10/17 02:03:24;;;;;;;8.07;4.20;;;12.30;99.90;;;;;;5050506;28;20043;-77
2022/10/17 02:05:50;;;;;;;11.75;4.63;;;12.30;99.90;;;;;;5050777;28;20461;-78
2022/10/17 02:08:38;;;;;;;8.40;4.63;;;12.30;99.90;;;;;;5050809;28;20036;-78
2022/10/17 02:11:12;;;;;;;9.20;4.57;;;12.30;99.90;;;;;;5050459;28;20037;-78
2022/10/17 02:13:48;;;;;;;8.98;4.38;;;12.20;99.90;;;;;;5050345;28;20041;-78
2022/10/17 02:16:39;;;;;;;9.60;4.20;;;12.20;99.90;;;;;;5050578;28;20041;-77
2022/10/17 02:19:04;;;;;;;8.98;4.80;;;12.20;99.90;;;;;;5033691;28;20041;-78
2022/10/17 02:21:46;;;;;;;9.10;4.55;;;12.20;99.90;;;;;;5033686;28;20100;-78
2022/10/17 02:24:15;;;;;;;9.95;4.32;;;12.10;99.90;;;;;;5050618;28;20080;-79
2022/10/17 02:26:51;;;;;;;7.57;4.45;;;12.10;99.90;;;;;;5050527;28;20044;-78
2022/10/17 02:29:35;;;;;;;11.38;4.68;;;12.10;99.90;;;;;;5050695;28;20037;-77
2022/10/17 02:32:15;;;;;;;7.00;4.85;;;12.10;99.90;;;;;;5050292;28;20123;-77
2022/10/17 02:34:51;;;;;;;8.35;4.72;;;12.10;99.90;;;;;;5053436;28;20090;-78
2022/10/17 02:37:23;;;;;;;9.93;5.60;;;12.10;99.90;;;;;;5054302;28;20043;-78
2022/10/17 02:39:50;;;;;;;12.43;5.43;;;12.10;99.90;;;;;;5054525;28;20045;-78
2022/10/17 02:42:17;;;;;;;10.18;5.00;;;12.10;99.90;;;;;;5054094;28;20506;-77
2022/10/17 02:44:44;;;;;;;13.30;5.40;;;12.00;99.90;;;;;;5054222;28;20041;-78
2022/10/17 02:47:33;;;;;;;8.80;5.75;;;12.10;99.90;;;;;;5037736;28;20041;-78
2022/10/17 02:49:58;;;;;;;8.05;5.40;;;12.00;99.90;;;;;;5054124;28;20037;-77
2022/10/17 02:52:32;;;;;;;10.55;5.45;;;12.00;99.90;;;;;;5054185;28;20037;-79
2022/10/17 02:55:09;;;;;;;9.70;5.63;;;12.00;99.90;;;;;;5053964;28;20071;-79
2022/10/17 02:57:43;;;;;;;7.13;5.32;;;12.00;99.90;;;;;;5035213;28;20059;-78
2022/10/17 03:00:10;;;;;;;;;;;12.00;99.90;;;;;;5054652;28;20083;-78
2022/10/17 03:02:44;;;;;;;7.60;5.63;;;12.00;99.90;;;;;;5053808;28;19920;-78
2022/10/17 03:05:13;;;;;;;11.27;6.47;;;12.00;99.90;;;;;;5053899;28;20511;-78
2022/10/17 03:07:38;;;;;;;8.80;5.72;;;12.00;99.90;;;;;;5054120;28;20037;-77
2022/10/17 03:10:04;;;;;;;10.68;6.53;;;12.00;99.90;;;;;;5054224;28;20143;-78
2022/10/17 03:12:30;;;;;;;9.18;6.00;;;12.00;99.90;;;;;;5053667;28;20037;-78
2022/10/17 03:14:55;;;;;;;9.68;6.15;;;12.10;99.90;;;;;;5053613;28;20037;-79
2022/10/17 03:17:21;;;;;;;12.35;6.90;;;12.10;99.90;;;;;;5053700;28;20028;-78
2022/10/17 03:19:46;;;;;;;10.00;6.65;;;12.10;99.90;;;;;;5054218;28;20176;-79
2022/10/17 03:22:12;;;;;;;11.95;6.63;;;12.10;99.90;;;;;;5053559;28;20041;-79
2022/10/17 03:24:37;;;;;;;10.52;6.30;;;12.10;99.90;;;;;;5053886;28;20090;-79
2022/10/17 03:27:03;;;;;;;8.88;6.22;;;12.10;99.90;;;;;;5053559;28;20072;-78
2022/10/17 03:29:28;;;;;;;11.90;6.68;;;12.10;99.90;;;;;;5054683;28;20041;-79
2022/10/17 03:31:54;;;;;;;9.27;6.68;;;12.10;99.90;;;;;;5053259;28;20041;-79
2022/10/17 03:34:20;;;;;;;11.52;7.10;;;12.10;99.90;;;;;;5053128;28;20045;-77
2022/10/17 03:36:45;;;;;;;10.63;7.43;;;12.10;99.90;;;;;;5053359;28;20391;-79
2022/10/17 03:39:11;;;;;;;9.85;7.38;;;12.10;99.90;;;;;;5053388;28;20421;-79
2022/10/17 03:41:36;;;;;;;13.20;7.38;;;12.10;99.90;;;;;;5054579;28;20473;-79
2022/10/17 03:44:02;;;;;;;9.95;7.47;;;12.20;99.90;;;;;;5053385;28;20037;-78
2022/10/17 03:46:28;;;;;;;9.82;7.65;;;12.20;99.90;;;;;;5036688;28;20079;-79
2022/10/17 03:48:53;;;;;;;9.50;7.30;;;12.20;99.90;;;;;;5053906;28;20384;-79
2022/10/17 03:51:19;;;;;;;10.50;7.72;;;12.20;99.90;;;;;;5052911;28;20095;-79
2022/10/17 03:53:44;;;;;;;10.07;7.57;;;12.20;99.90;;;;;;5053459;28;20383;-79
2022/10/17 03:56:22;;;;;;;11.73;8.20;;;12.20;99.90;;;;;;5053357;28;20048;-79
2022/10/17 03:58:48;;;;;;;12.30;7.63;;;12.20;99.90;;;;;;5053088;28;20072;-80
2022/10/17 04:01:15;;;;;;;10.43;7.68;;;12.20;99.90;;;;;;5053402;28;20052;-79
2022/10/17 04:03:41;;;;;;;11.23;8.15;;;12.20;99.90;;;;;;5053234;28;20639;-80
2022/10/17 04:06:09;;;;;;;14.55;8.23;;;12.30;99.90;;;;;;5053579;28;20049;-79
2022/10/17 04:08:35;;;;;;;10.00;8.68;;;12.30;99.90;;;;;;5053073;28;20037;-80
2022/10/17 04:11:02;;;;;;;10.55;8.32;;;12.30;99.90;;;;;;5036771;28;20048;-79
2022/10/17 04:13:28;;;;;;;12.50;8.75;;;12.30;99.90;;;;;;5053052;28;20155;-79
2022/10/17 04:15:59;;;;;;;11.13;8.30;;;12.30;99.90;;;;;;5053493;28;20183;-78
2022/10/17 04:18:25;;;;;;;9.80;8.55;;;12.30;99.90;;;;;;5052951;28;20040;-78
2022/10/17 04:20:51;;;;;;;12.23;9.88;;;12.40;99.90;;;;;;5053113;28;20104;-80
2022/10/17 04:23:17;;;;;;;10.57;9.15;;;12.40;99.90;;;;;;5052733;28;20045;-79
2022/10/17 04:25:42;;;;;;;11.70;9.10;;;12.40;99.90;;;;;;5053012;28;20039;-78
2022/10/17 04:28:08;;;;;;;16.10;9.52;;;12.40;99.90;;;;;;5053217;28;20047;-79
2022/10/17 04:30:33;;;;;;;12.70;9.05;;;12.50;99.90;;;;;;5052892;28;20033;-79
2022/10/17 04:32:59;;;;;;;13.35;10.18;;;12.50;99.90;;;;;;5052904;28;20677;-79
2022/10/17 04:35:25;;;;;;;14.48;9.77;;;12.50;99.90;;;;;;5052653;28;20037;-79
2022/10/17 04:37:50;;;;;;;15.50;10.13;;;12.50;99.90;;;;;;5053663;28;20506;-79
2022/10/17 04:40:16;;;;;;;15.10;10.27;;;12.50;99.90;;;;;;5052086;28;20079;-77
2022/10/17 04:42:41;;;;;;;14.73;9.98;;;12.60;99.90;;;;;;5053011;28;20140;-80
2022/10/17 04:45:07;;;;;;;14.60;10.57;;;12.60;99.90;;;;;;5052470;28;20045;-80
2022/10/17 04:47:33;;;;;;;15.95;11.02;;;12.60;99.90;;;;;;5052818;28;20041;-80
2022/10/17 04:49:58;;;;;;;17.75;11.70;;;12.70;99.90;;;;;;5052512;28;20048;-79
2022/10/17 04:52:24;;;;;;;15.48;10.95;;;12.70;99.90;;;;;;5052240;28;20560;-79
2022/10/17 04:54:50;;;;;;;16.17;11.70;;;12.70;99.90;;;;;;5052226;28;20379;-80
2022/10/17 04:57:17;;;;;;;14.07;11.25;;;12.90;99.90;;;;;;5035927;28;20032;-80
2022/10/17 04:59:43;;;;;;;16.15;11.82;;;12.80;99.90;;;;;;5048826;28;20037;-79
2022/10/17 05:02:08;;;;;;;18.35;11.40;;;12.90;99.90;;;;;;5052182;28;20411;-80
2022/10/17 05:04:34;;;;;;;14.43;11.25;;;12.90;99.90;;;;;;5052340;28;20041;-79
2022/10/17 05:06:59;;;;;;;18.08;12.20;;;12.90;99.90;;;;;;5051987;28;20044;-79
2022/10/17 05:09:25;;;;;;;15.13;11.80;;;12.90;99.90;;;;;;5052082;28;20041;-80
2022/10/17 05:11:51;;;;;;;18.02;12.18;;;12.90;99.90;;;;;;5035265;28;20036;-80
2022/10/17 05:14:16;;;;;;;16.65;12.27;;;13.00;99.90;;;;;;5052029;28;20417;-79
2022/10/17 05:16:42;;;;;;;15.43;12.02;;;12.90;99.90;;;;;;5051786;28;20048;-80
2022/10/17 05:19:07;;;;;;;17.80;12.13;;;13.00;99.90;;;;;;5052077;28;20043;-79
2022/10/17 05:21:33;;;;;;;18.58;12.73;;;13.00;99.90;;;;;;5051989;28;20041;-80
2022/10/17 05:23:59;;;;;;;15.82;13.50;;;13.00;99.90;;;;;;5051644;28;20456;-80
2022/10/17 05:26:25;;;;;;;17.80;12.48;;;13.00;99.90;;;;;;5052411;28;20511;-80
2022/10/17 05:28:51;;;;;;;17.40;12.68;;;13.10;99.90;;;;;;5051497;28;20049;-80
2022/10/17 05:31:17;;;;;;;17.08;12.30;;;13.10;99.90;;;;;;5051630;28;20051;-80
2022/10/17 05:33:43;;;;;;;17.13;13.02;;;13.10;99.90;;;;;;5051913;28;20040;-80
2022/10/17 05:36:08;;;;;;;17.17;13.52;;;13.10;99.90;;;;;;5051530;28;20130;-80
2022/10/17 05:38:34;;;;;;;18.13;13.65;;;13.10;99.90;;;;;;5051615;28;20517;-80
2022/10/17 05:41:01;;;;;;;20.13;14.25;;;13.10;99.90;;;;;;5051386;28;20055;-80
2022/10/17 05:43:28;;;;;;;19.23;14.27;;;13.10;99.90;;;;;;5053541;28;20040;-80
2022/10/17 05:45:55;;;;;;;20.23;14.32;;;13.20;99.90;;;;;;5051140;28;20033;-80
2022/10/17 05:48:22;;;;;;;18.85;14.70;;;13.20;99.90;;;;;;5051362;28;20552;-80
2022/10/17 05:50:47;;;;;;;20.77;14.63;;;13.20;99.90;;;;;;5051523;28;20033;-82
2022/10/17 05:53:13;;;;;;;20.98;15.68;;;13.30;99.90;;;;;;5051120;28;20037;-80
2022/10/17 05:55:39;;;;;;;21.95;15.85;;;13.40;99.90;;;;;;5051681;28;20044;-81
2022/10/17 05:58:04;;;;;;;22.23;15.73;;;13.50;99.90;;;;;;5051462;28;20039;-80
2022/10/17 06:00:30;;;;;;;20.45;15.23;;;13.50;99.90;;;;;;5051235;28;20087;-80
2022/10/17 06:02:55;;;;;;;21.30;15.48;;;13.60;99.90;;;;;;5051052;28;20045;-80
2022/10/17 06:05:21;;;;;;;20.02;14.77;;;13.60;99.90;;;;;;5051397;28;20033;-81
2022/10/17 06:07:48;;;;;;;23.90;15.35;;;13.60;99.90;;;;;;5033750;28;20049;-80
2022/10/17 06:10:16;;;;;;;22.63;15.13;;;13.60;99.90;;;;;;5050960;28;20112;-80
2022/10/17 06:12:42;;;;;;;22.48;14.38;;;13.70;99.90;;;;;;5050878;28;20072;-80
2022/10/17 06:15:08;;;;;;;18.40;15.23;;;13.70;99.90;;;;;;5050586;28;20166;-80
2022/10/17 06:17:34;;;;;;;19.58;14.70;;;13.60;99.90;;;;;;5050953;28;20037;-80
2022/10/17 06:20:00;;;;;;;19.90;15.05;;;13.70;99.90;;;;;;5051388;28;20071;-80
2022/10/17 06:22:25;;;;;;;20.88;14.98;;;13.80;99.90;;;;;;5050566;28;20037;-80
2022/10/17 06:24:52;;;;;;;17.95;14.93;;;13.70;99.90;;;;;;5035126;28;20041;-80
2022/10/17 06:27:18;;;;;;;24.40;15.13;;;13.70;99.90;;;;;;5051124;28;20461;-79
2022/10/17 06:29:44;;;;;;;21.85;15.13;;;13.80;99.90;;;;;;5051260;28;20044;-81
2022/10/17 06:32:09;;;;;;;18.05;14.02;;;13.70;99.90;;;;;;5051159;28;20044;-80
2022/10/17 06:34:35;;;;;;;21.75;15.43;;;13.80;99.90;;;;;;5034369;28;20518;-79
2022/10/17 06:37:00;;;;;;;21.80;14.85;;;13.80;99.90;;;;;;5050713;28;20041;-80
2022/10/17 06:39:32;;;;;;;17.85;14.23;;;13.90;99.90;;;;;;5050882;28;20034;-80
2022/10/17 06:42:01;;;;;;;20.88;14.30;;;13.80;99.90;;;;;;5050653;28;20071;-81
2022/10/17 06:44:30;;;;;;;20.95;15.02;;;13.90;99.90;;;;;;5034313;28;20045;-80
2022/10/17 06:46:57;;;;;;;20.23;14.05;;;13.90;99.90;;;;;;5050964;28;20116;-81
2022/10/17 06:49:23;;;;;;;20.02;14.50;;;14.00;99.90;;;;;;5034439;28;20051;-79
2022/10/17 06:51:49;;;;;;;21.67;14.88;;;14.00;99.90;;;;;;5050196;28;20422;-79
2022/10/17 06:54:14;;;;;;;20.00;14.68;;;14.10;99.90;;;;;;5050529;28;20040;-80
2022/10/17 06:56:40;;;;;;;19.73;14.52;;;14.10;99.90;;;;;;5050363;28;20033;-80
2022/10/17 06:59:06;;;;;;;20.45;13.93;;;14.10;99.90;;;;;;5048012;28;20073;-81
2022/10/17 07:01:33;;;;;;;20.90;14.20;;;14.10;99.90;;;;;;5049765;28;20033;-79
2022/10/17 07:03:58;;;;;;;19.88;14.27;;;14.20;99.90;;;;;;5050856;28;20041;-80
2022/10/17 07:06:24;;;;;;;17.48;13.70;;;14.20;99.90;;;;;;5050230;28;20120;-80
2022/10/17 07:08:49;;;;;;;21.05;15.00;;;14.20;99.90;;;;;;5043032;28;20087;-78
2022/10/17 07:11:18;;;;;;;17.08;12.95;;;14.30;99.90;;;;;;5043459;28;20048;-80
2022/10/17 07:13:44;;;;;;;22.67;13.73;;;14.30;99.90;;;;;;5050291;28;20466;-80
2022/10/17 07:16:11;;;;;;;19.08;13.10;;;14.30;99.90;;;;;;5050274;28;20494;-81
2022/10/17 07:18:37;;;;;;;18.25;12.80;;;14.40;99.90;;;;;;5033641;28;20037;-80
2022/10/17 07:21:03;;;;;;;18.45;12.98;;;14.40;99.90;;;;;;5036857;28;20037;-79
2022/10/17 07:23:29;;;;;;;16.98;12.88;;;14.50;99.90;;;;;;5036989;28;20041;-80
2022/10/17 07:26:06;;;;;;;16.05;12.30;;;14.50;99.90;;;;;;5053644;28;20112;-79
2022/10/17 07:28:36;;;;;;;16.48;12.80;;;14.60;99.90;;;;;;5054324;28;20398;-80
2022/10/17 07:31:04;;;;;;;16.85;12.38;;;14.60;99.90;;;;;;5053888;28;20513;-80
2022/10/17 07:33:29;;;;;;;17.08;12.35;;;14.70;99.90;;;;;;5053547;28;20114;-80
2022/10/17 07:35:58;;;;;;;18.08;12.38;;;14.80;99.90;;;;;;5054172;28;20170;-79
2022/10/17 07:38:24;;;;;;;15.13;12.10;;;14.90;99.90;;;;;;5054012;28;20037;-80
2022/10/17 07:40:57;;;;;;;16.52;12.32;;;14.90;99.90;;;;;;5053837;28;20103;-80
2022/10/17 07:43:24;;;;;;;16.13;12.07;;;15.00;99.90;;;;;;5037023;28;20041;-79
2022/10/17 07:45:50;;;;;;;16.35;12.43;;;15.00;99.90;;;;;;5054668;28;20029;-79
2022/10/17 07:48:15;;;;;;;17.25;11.70;;;15.00;99.90;;;;;;5053999;28;20090;-79
2022/10/17 07:50:41;;;;;;;16.52;12.13;;;15.10;99.90;;;;;;5054044;28;20037;-79
2022/10/17 07:53:07;;;;;;;19.65;11.63;;;15.10;99.90;;;;;;5054233;28;20498;-79
2022/10/17 07:55:32;;;;;;;13.63;11.20;;;15.10;99.90;;;;;;5053942;28;20033;-79
2022/10/17 07:57:59;;;;;;;20.10;11.55;;;15.20;99.90;;;;;;5053190;28;20041;-79
2022/10/17 08:00:25;;;;;;;16.23;11.27;;;15.30;99.90;;;;;;5053878;28;20442;-80
2022/10/17 08:02:51;;;;;;;15.27;11.57;;;15.50;99.90;;;;;;5053539;28;20041;-80
2022/10/17 08:05:17;;;;;;;18.23;11.43;;;15.60;99.90;;;;;;5053645;28;20055;-80
2022/10/17 08:07:42;;;;;;;15.25;10.32;;;15.80;99.90;;;;;;5053674;28;20521;-80
2022/10/17 08:10:09;;;;;;;14.65;10.65;;;15.90;99.90;;;;;;5053449;28;20128;-80
2022/10/17 08:12:34;;;;;;;15.82;10.45;;;16.00;99.90;;;;;;5053409;28;20101;-80
2022/10/17 08:15:00;;;;;;;12.55;9.93;;;16.00;99.90;;;;;;5052572;28;20041;-79
2022/10/17 08:17:26;;;;;;;15.02;11.25;;;16.10;99.90;;;;;;5053172;28;20045;-79
2022/10/17 08:19:52;;;;;;;14.68;9.95;;;16.10;99.90;;;;;;5053166;28;20037;-79
2022/10/17 08:22:17;;;;;;;15.00;9.95;;;16.10;99.90;;;;;;5052915;28;20403;-79
2022/10/17 08:24:44;;;;;;;16.48;10.02;;;16.10;99.90;;;;;;5054182;28;20045;-79
2022/10/17 08:27:10;;;;;;;15.80;10.23;;;16.10;99.90;;;;;;5053083;28;20527;-79
2022/10/17 08:29:36;;;;;;;12.27;10.07;;;16.20;99.90;;;;;;5053441;28;20136;-79
2022/10/17 08:32:02;;;;;;;10.80;9.10;;;16.20;99.90;;;;;;5051513;28;20120;-80
2022/10/17 08:34:27;;;;;;;11.45;9.23;;;16.20;99.90;;;;;;5052548;28;20498;-80
2022/10/17 08:36:53;;;;;;;14.27;9.35;;;16.30;99.90;;;;;;5052461;28;20045;-79
2022/10/17 08:39:19;;;;;;;11.15;8.93;;;16.30;99.90;;;;;;5052480;28;20037;-78
2022/10/17 08:41:53;;;;;;;12.63;9.45;;;16.40;99.90;;;;;;5052613;28;20059;-79
2022/10/17 08:44:36;;;;;;;13.27;9.02;;;16.40;99.90;;;;;;5052701;28;20045;-80
2022/10/17 08:47:06;;;;;;;12.25;8.95;;;16.50;99.90;;;;;;5052772;28;20056;-80
2022/10/17 08:50:00;;;;;;;10.30;8.82;;;16.50;99.90;;;;;;5053099;28;20037;-80
2022/10/17 08:52:38;;;;;;;12.50;9.10;;;16.50;99.90;;;;;;5052096;28;20045;-79
2022/10/17 08:55:14;;;;;;;11.35;8.73;;;16.60;99.90;;;;;;5052309;28;20446;-80
2022/10/17 08:57:40;;;;;;;13.20;8.55;;;16.70;99.90;;;;;;5036154;28;20394;-81
2022/10/17 09:00:19;;;;;;;11.40;8.68;;;16.70;99.90;;;;;;5045578;28;20041;-80
2022/10/17 09:03:09;;;;;;;13.63;8.13;;;16.80;99.90;;;;;;5046304;28;20073;-79
2022/10/17 09:06:11;;;;;;;11.90;7.70;;;16.80;99.90;;;;;;5052851;28;20123;-79
2022/10/17 09:08:50;;;;;;;10.43;8.00;;;16.70;99.90;;;;;;5052024;28;20103;-79
2022/10/17 09:11:26;;;;;;;10.15;7.65;;;16.60;99.90;;;;;;5051685;28;20044;-80
2022/10/17 09:14:00;;;;;;;10.45;8.05;;;16.60;99.90;;;;;;5052869;28;20433;-79
2022/10/17 09:17:03;;;;;;;14.25;8.63;;;16.70;99.90;;;;;;5052178;28;20052;-80
2022/10/17 09:19:37;;;;;;;12.32;8.25;;;16.80;99.90;;;;;;5035005;28;20044;-79
2022/10/17 09:22:19;;;;;;;14.32;9.05;;;16.80;99.90;;;;;;5035750;28;20041;-79
2022/10/17 09:24:55;;;;;;;11.07;8.30;;;16.80;99.90;;;;;;5052047;28;20052;-80
2022/10/17 09:27:40;;;;;;;10.60;8.27;;;16.80;99.90;;;;;;5052224;28;20406;-81
2022/10/17 09:30:21;;;;;;;12.13;7.90;;;16.80;99.90;;;;;;5052252;28;20052;-80
2022/10/17 09:32:47;;;;;;;14.55;8.57;;;16.80;99.90;;;;;;5052548;28;20044;-79
2022/10/17 09:35:16;;;;;;;9.38;8.18;;;16.80;99.90;;;;;;5051744;28;20394;-80
2022/10/17 09:37:43;;;;;;;9.48;7.80;;;16.80;99.90;;;;;;5051544;28;20033;-81
2022/10/17 09:40:21;;;;;;;15.00;8.73;;;16.80;99.90;;;;;;5052730;28;20052;-80
2022/10/17 09:42:48;;;;;;;11.13;8.32;;;16.80;99.90;;;;;;5051246;28;20025;-80
2022/10/17 09:45:23;;;;;;;13.82;9.00;;;16.80;99.90;;;;;;5051836;28;20425;-80
2022/10/17 09:47:56;;;;;;;14.82;9.30;;;16.80;99.90;;;;;;5051957;28;20037;-80
2022/10/17 09:50:25;;;;;;;14.93;9.18;;;16.80;99.90;;;;;;5053672;28;20049;-80
2022/10/17 09:52:53;;;;;;;12.95;8.77;;;16.90;99.90;;;;;;5051606;28;20388;-81
2022/10/17 09:55:39;;;;;;;14.25;9.32;;;16.80;99.90;;;;;;5051768;28;20041;-81
2022/10/17 09:58:06;;;;;;;14.95;9.38;;;16.80;99.90;;;;;;5051998;28;20131;-80
2022/10/17 10:00:38;;;;;;;11.85;9.32;;;16.70;99.90;;;;;;5053106;28;20379;-79
2022/10/17 10:03:23;;;;;;;13.48;9.40;;;16.70;99.90;;;;;;5050617;28;20041;-80
2022/10/17 10:06:15;;;;;;;14.18;10.63;;;16.60;99.90;;;;;;5051290;28;20044;-79
2022/10/17 10:08:52;;;;;;;15.07;10.50;;;16.50;99.90;;;;;;5052000;28;20364;-80
2022/10/17 10:11:23;;;;;;;16.00;10.32;;;16.50;99.90;;;;;;5034645;28;20048;-81
2022/10/17 10:13:49;;;;;;;16.70;10.85;;;16.40;99.90;;;;;;5034569;28;20056;-79
2022/10/17 10:16:30;;;;;;;16.85;11.18;;;16.40;99.90;;;;;;5051495;28;20394;-78
2022/10/17 10:18:56;;;;;;;12.93;9.93;;;16.30;99.90;;;;;;5044942;28;20034;-78
2022/10/17 10:21:25;;;;;;;12.93;10.55;;;16.30;99.90;;;;;;5026653;28;20048;-80
2022/10/17 10:24:04;;;;;;;13.60;10.52;;;16.30;99.90;;;;;;5050679;28;20041;-79
2022/10/17 10:26:37;;;;;;;15.95;10.20;;;16.20;99.90;;;;;;5050235;28;20041;-79
2022/10/17 10:29:29;;;;;;;16.23;10.70;;;16.20;99.90;;;;;;5050301;28;20052;-79
2022/10/17 10:32:14;;;;;;;17.25;11.15;;;16.20;99.90;;;;;;5049995;28;20033;-79
2022/10/17 10:34:51;;;;;;;14.10;10.73;;;16.20;99.90;;;;;;5050051;28;20075;-80
2022/10/17 10:37:32;;;;;;;15.35;10.77;;;16.20;99.90;;;;;;5050087;28;20044;-79
2022/10/17 10:40:01;;;;;;;15.27;10.85;;;16.20;99.90;;;;;;5050384;28;20041;-80
2022/10/17 10:42:34;;;;;;;16.50;11.65;;;16.20;99.90;;;;;;5049794;28;20120;-79
2022/10/17 10:45:18;;;;;;;16.55;10.82;;;16.20;99.90;;;;;;5039451;28;20049;-79
2022/10/17 10:47:55;;;;;;;14.57;11.00;;;16.20;99.90;;;;;;5033284;28;20041;-79
2022/10/17 10:50:42;;;;;;;15.20;11.15;;;16.20;99.90;;;;;;5033508;28;20041;-80
2022/10/17 10:53:14;;;;;;;18.15;12.30;;;16.20;99.90;;;;;;5033399;28;20044;-79
2022/10/17 10:56:03;;;;;;;15.98;11.18;;;16.20;99.90;;;;;;5053183;28;20045;-80
2022/10/17 10:58:55;;;;;;;15.55;11.15;;;16.10;99.90;;;;;;5053979;28;20040;-81
2022/10/17 11:01:24;;;;;;;17.30;11.15;;;16.20;99.90;;;;;;5043566;28;20565;-80
2022/10/17 11:03:53;;;;;;;15.98;11.25;;;16.10;99.90;;;;;;5053771;28;20037;-80
2022/10/17 11:06:26;;;;;;;16.52;10.52;;;16.20;99.90;;;;;;5053756;28;20542;-80
2022/10/17 11:09:10;;;;;;;16.80;11.80;;;16.20;99.90;;;;;;5053964;28;20040;-79
2022/10/17 11:11:44;;;;;;;17.30;10.93;;;16.20;99.90;;;;;;5053714;28;20049;-80
2022/10/17 11:14:24;;;;;;;15.70;11.57;;;16.30;99.90;;;;;;5037617;28;20056;-79
2022/10/17 11:17:16;;;;;;;17.90;11.90;;;16.30;99.90;;;;;;5037728;28;20036;-79
2022/10/17 11:19:55;;;;;;;16.45;11.43;;;16.30;99.90;;;;;;5054115;28;20037;-79
2022/10/17 11:22:29;;;;;;;16.17;11.07;;;16.40;99.90;;;;;;5036872;28;20108;-79
2022/10/17 11:25:12;;;;;;;17.25;11.13;;;16.40;99.90;;;;;;5053886;28;20049;-79
2022/10/17 11:27:37;;;;;;;17.80;11.98;;;16.40;99.90;;;;;;5053653;28;20090;-80
2022/10/17 11:30:04;;;;;;;16.33;11.05;;;16.40;99.90;;;;;;5053770;28;20037;-79
2022/10/17 11:32:44;;;;;;;17.92;11.55;;;16.40;99.90;;;;;;5053821;28;20045;-79
2022/10/17 11:35:31;;;;;;;16.67;11.32;;;16.50;99.90;;;;;;5053616;28;20418;-79
2022/10/17 11:38:17;;;;;;;16.85;11.23;;;16.50;99.90;;;;;;5036991;28;20037;-79
2022/10/17 11:40:50;;;;;;;16.55;11.95;;;16.50;99.90;;;;;;5053853;28;20521;-79
2022/10/17 11:43:34;;;;;;;15.45;11.30;;;16.40;99.90;;;;;;5053180;28;20045;-80
2022/10/17 11:46:24;;;;;;;13.35;10.55;;;16.40;99.90;;;;;;5053131;28;20065;-79
2022/10/17 11:48:49;;;;;;;18.48;11.45;;;16.40;99.90;;;;;;5053246;28;20071;-79
2022/10/17 11:51:15;;;;;;;14.80;10.70;;;16.40;99.90;;;;;;5053123;28;20068;-79
2022/10/17 11:53:54;;;;;;;14.95;10.48;;;16.40;99.90;;;;;;5053245;28;20041;-80
2022/10/17 11:56:34;;;;;;;18.77;10.80;;;16.40;99.90;;;;;;5037071;28;20033;-79
2022/10/17 11:59:24;;;;;;;14.68;10.43;;;16.30;99.90;;;;;;5048305;28;20037;-78
2022/10/17 12:02:00;;;;;;;19.75;11.60;;;16.40;99.90;;;;;;5054615;28;20037;-79
2022/10/17 12:04:53;;;;;;;17.05;10.60;;;16.40;99.90;;;;;;5053891;28;20037;-79
2022/10/17 12:07:37;;;;;;;15.57;10.40;;;16.40;99.90;;;;;;5052205;28;20119;-80
2022/10/17 12:10:41;;;;;;;15.57;10.07;;;16.50;99.90;;;;;;5053915;28;20171;-79
2022/10/17 12:13:28;;;;;;;13.75;9.20;;;16.50;99.90;;;;;;5053418;28;20041;-79
2022/10/17 12:15:55;;;;;;;11.90;9.48;;;16.50;99.90;;;;;;5037286;28;20048;-79
2022/10/17 12:18:26;;;;;;;13.05;9.52;;;16.60;99.90;;;;;;5054669;28;20113;-80
2022/10/17 12:20:57;;;;;;;11.90;9.63;;;16.60;99.90;;;;;;5053770;28;20086;-79
2022/10/17 12:23:29;;;;;;;13.98;10.10;;;16.70;99.90;;;;;;5054545;28;20048;-79
2022/10/17 12:26:00;;;;;;;12.13;9.52;;;16.80;99.90;;;;;;5054324;28;20534;-79
2022/10/17 12:28:52;;;;;;;11.98;9.27;;;16.90;99.90;;;;;;5054342;28;20476;-79
2022/10/17 12:31:18;;;;;;;11.05;8.75;;;16.90;99.90;;;;;;5050353;28;20064;-79
2022/10/17 12:33:49;;;;;;;9.45;7.72;;;17.00;99.90;;;;;;5054064;28;20067;-80
2022/10/17 12:36:19;;;;;;;11.13;8.10;;;17.00;99.90;;;;;;5037556;28;20037;-80
2022/10/17 12:38:48;;;;;;;10.63;7.65;;;17.00;99.90;;;;;;5053553;28;20044;-80
2022/10/17 12:41:13;;;;;;;9.73;7.25;;;16.90;99.90;;;;;;5053857;28;20052;-80
2022/10/17 12:43:45;;;;;;;9.38;7.72;;;16.90;99.90;;;;;;5053389;28;20115;-80
2022/10/17 12:46:11;;;;;;;10.63;7.30;;;16.90;99.90;;;;;;5053359;28;20041;-79
2022/10/17 12:48:36;;;;;;;9.43;6.65;;;16.80;99.90;;;;;;5053444;28;20056;-79
2022/10/17 12:51:09;;;;;;;8.55;5.68;;;16.70;99.90;;;;;;5053125;28;20455;-80
2022/10/17 12:53:45;;;;;;;8.82;5.80;;;16.70;99.90;;;;;;5052545;28;20075;-80
2022/10/17 12:56:18;;;;;;;9.20;5.60;;;16.70;99.90;;;;;;5052688;28;20049;-80